sensor_id;sensor_type;location;lat;lon;timestamp;P1;durP1;ratioP1;P2;durP2;ratioP2
17510;SDS011;8873;48.818;9.422;2023-02-07T00:01:04;15.73;;;7.03;;
17510;SDS011;8873;48.818;9.422;2023-02-07T00:03:32;13.70;;;7.70;;
17510;SDS011;8873;48.818;9.422;2023-02-07T00:06:03;17.13;;;7.07;;
17510;SDS011;8873;48.818;9.422;2023-02-07T00:08:31;10.97;;;6.43;;
17510;SDS011;8873;48.818;9.422;2023-02-07T00:11:03;16.70;;;7.63;;
17510;SDS011;8873;48.818;9.422;2023-02-07T00:13:31;14.53;;;7.10;;
17510;SDS011;8873;48.818;9.422;2023-02-07T00:15:58;14.80;;;7.03;;
17510;SDS011;8873;48.818;9.422;2023-02-07T00:18:26;15.60;;;7.03;;
17510;SDS011;8873;48.818;9.422;2023-02-07T00:20:57;16.07;;;7.07;;
17510;SDS011;8873;48.818;9.422;2023-02-07T00:23:25;14.43;;;7.43;;
17510;SDS011;8873;48.818;9.422;2023-02-07T00:25:52;14.63;;;6.90;;
17510;SDS011;8873;48.818;9.422;2023-02-07T00:28:21;21.80;;;7.50;;
17510;SDS011;8873;48.818;9.422;2023-02-07T00:30:49;20.77;;;8.53;;
17510;SDS011;8873;48.818;9.422;2023-02-07T00:33:17;16.27;;;8.43;;
17510;SDS011;8873;48.818;9.422;2023-02-07T00:35:45;19.53;;;7.90;;
17510;SDS011;8873;48.818;9.422;2023-02-07T00:38:12;20.27;;;8.93;;
17510;SDS011;8873;48.818;9.422;2023-02-07T00:40:40;17.20;;;8.30;;
17510;SDS011;8873;48.818;9.422;2023-02-07T00:43:07;20.30;;;9.00;;
17510;SDS011;8873;48.818;9.422;2023-02-07T00:45:42;17.10;;;8.40;;
17510;SDS011;8873;48.818;9.422;2023-02-07T00:48:10;20.07;;;8.70;;
17510;SDS011;8873;48.818;9.422;2023-02-07T00:50:38;20.40;;;9.27;;
17510;SDS011;8873;48.818;9.422;2023-02-07T00:53:07;20.37;;;10.43;;
17510;SDS011;8873;48.818;9.422;2023-02-07T00:55:35;22.73;;;9.93;;
17510;SDS011;8873;48.818;9.422;2023-02-07T00:58:03;19.13;;;10.23;;
17510;SDS011;8873;48.818;9.422;2023-02-07T01:00:31;20.83;;;9.60;;
17510;SDS011;8873;48.818;9.422;2023-02-07T01:03:00;21.60;;;9.77;;
17510;SDS011;8873;48.818;9.422;2023-02-07T01:05:27;19.70;;;8.87;;
17510;SDS011;8873;48.818;9.422;2023-02-07T01:07:55;18.10;;;8.77;;
17510;SDS011;8873;48.818;9.422;2023-02-07T01:10:22;19.00;;;9.20;;
17510;SDS011;8873;48.818;9.422;2023-02-07T01:12:50;20.20;;;9.30;;
17510;SDS011;8873;48.818;9.422;2023-02-07T01:15:18;19.67;;;9.17;;
17510;SDS011;8873;48.818;9.422;2023-02-07T01:17:46;19.73;;;10.07;;
17510;SDS011;8873;48.818;9.422;2023-02-07T01:20:15;19.00;;;9.33;;
17510;SDS011;8873;48.818;9.422;2023-02-07T01:22:42;18.63;;;9.43;;
17510;SDS011;8873;48.818;9.422;2023-02-07T01:25:10;19.73;;;9.97;;
17510;SDS011;8873;48.818;9.422;2023-02-07T01:27:37;21.17;;;9.83;;
17510;SDS011;8873;48.818;9.422;2023-02-07T01:30:05;23.00;;;10.43;;
17510;SDS011;8873;48.818;9.422;2023-02-07T01:32:33;25.37;;;11.13;;
17510;SDS011;8873;48.818;9.422;2023-02-07T01:35:03;22.13;;;10.80;;
17510;SDS011;8873;48.818;9.422;2023-02-07T01:37:33;19.83;;;9.57;;
17510;SDS011;8873;48.818;9.422;2023-02-07T01:40:03;23.27;;;10.43;;
17510;SDS011;8873;48.818;9.422;2023-02-07T01:42:31;24.03;;;10.80;;
17510;SDS011;8873;48.818;9.422;2023-02-07T01:45:04;22.10;;;10.43;;
17510;SDS011;8873;48.818;9.422;2023-02-07T01:47:31;30.20;;;10.40;;
17510;SDS011;8873;48.818;9.422;2023-02-07T01:49:59;19.20;;;10.13;;
17510;SDS011;8873;48.818;9.422;2023-02-07T01:52:28;22.87;;;10.67;;
17510;SDS011;8873;48.818;9.422;2023-02-07T01:55:00;20.70;;;10.10;;
17510;SDS011;8873;48.818;9.422;2023-02-07T01:57:29;22.60;;;10.43;;
17510;SDS011;8873;48.818;9.422;2023-02-07T01:59:56;22.97;;;10.37;;
17510;SDS011;8873;48.818;9.422;2023-02-07T02:02:26;21.37;;;10.70;;
17510;SDS011;8873;48.818;9.422;2023-02-07T02:04:55;23.97;;;10.70;;
17510;SDS011;8873;48.818;9.422;2023-02-07T02:07:24;22.13;;;9.97;;
17510;SDS011;8873;48.818;9.422;2023-02-07T02:09:51;22.93;;;11.43;;
17510;SDS011;8873;48.818;9.422;2023-02-07T02:12:27;28.17;;;12.00;;
17510;SDS011;8873;48.818;9.422;2023-02-07T02:15:02;25.23;;;11.03;;
17510;SDS011;8873;48.818;9.422;2023-02-07T02:17:37;24.40;;;11.07;;
17510;SDS011;8873;48.818;9.422;2023-02-07T02:22:58;24.33;;;11.00;;
17510;SDS011;8873;48.818;9.422;2023-02-07T02:28:40;26.13;;;11.10;;
17510;SDS011;8873;48.818;9.422;2023-02-07T02:31:23;23.53;;;11.07;;
17510;SDS011;8873;48.818;9.422;2023-02-07T02:33:57;28.57;;;11.30;;
17510;SDS011;8873;48.818;9.422;2023-02-07T02:36:29;27.97;;;11.53;;
17510;SDS011;8873;48.818;9.422;2023-02-07T02:39:02;25.70;;;11.93;;
17510;SDS011;8873;48.818;9.422;2023-02-07T02:41:36;27.20;;;11.83;;
17510;SDS011;8873;48.818;9.422;2023-02-07T02:44:06;26.20;;;12.17;;
17510;SDS011;8873;48.818;9.422;2023-02-07T02:46:35;26.73;;;12.20;;
17510;SDS011;8873;48.818;9.422;2023-02-07T02:49:06;25.57;;;11.67;;
17510;SDS011;8873;48.818;9.422;2023-02-07T02:51:34;27.67;;;12.17;;
17510;SDS011;8873;48.818;9.422;2023-02-07T02:54:02;30.77;;;12.40;;
17510;SDS011;8873;48.818;9.422;2023-02-07T02:56:33;25.77;;;11.83;;
17510;SDS011;8873;48.818;9.422;2023-02-07T02:59:11;26.33;;;11.73;;
17510;SDS011;8873;48.818;9.422;2023-02-07T03:01:46;29.73;;;13.07;;
17510;SDS011;8873;48.818;9.422;2023-02-07T03:04:26;26.50;;;12.37;;
17510;SDS011;8873;48.818;9.422;2023-02-07T03:07:00;30.00;;;12.33;;
17510;SDS011;8873;48.818;9.422;2023-02-07T03:09:33;26.67;;;11.60;;
17510;SDS011;8873;48.818;9.422;2023-02-07T03:12:04;22.53;;;11.23;;
17510;SDS011;8873;48.818;9.422;2023-02-07T03:14:34;24.30;;;12.43;;
17510;SDS011;8873;48.818;9.422;2023-02-07T03:17:07;25.63;;;12.23;;
17510;SDS011;8873;48.818;9.422;2023-02-07T03:19:40;20.73;;;10.70;;
17510;SDS011;8873;48.818;9.422;2023-02-07T03:22:10;23.17;;;11.53;;
17510;SDS011;8873;48.818;9.422;2023-02-07T03:24:40;30.77;;;12.83;;
17510;SDS011;8873;48.818;9.422;2023-02-07T03:27:10;22.70;;;10.57;;
17510;SDS011;8873;48.818;9.422;2023-02-07T03:29:40;24.07;;;11.33;;
17510;SDS011;8873;48.818;9.422;2023-02-07T03:32:11;23.13;;;11.17;;
17510;SDS011;8873;48.818;9.422;2023-02-07T03:34:43;27.57;;;11.37;;
17510;SDS011;8873;48.818;9.422;2023-02-07T03:37:14;26.83;;;11.70;;
17510;SDS011;8873;48.818;9.422;2023-02-07T03:39:42;22.83;;;12.03;;
17510;SDS011;8873;48.818;9.422;2023-02-07T03:42:11;24.13;;;11.60;;
17510;SDS011;8873;48.818;9.422;2023-02-07T03:44:42;24.47;;;10.93;;
17510;SDS011;8873;48.818;9.422;2023-02-07T03:47:10;25.63;;;11.60;;
17510;SDS011;8873;48.818;9.422;2023-02-07T03:49:38;24.40;;;11.77;;
17510;SDS011;8873;48.818;9.422;2023-02-07T03:52:07;25.13;;;12.33;;
17510;SDS011;8873;48.818;9.422;2023-02-07T03:54:35;23.37;;;11.37;;
17510;SDS011;8873;48.818;9.422;2023-02-07T03:57:02;23.37;;;10.97;;
17510;SDS011;8873;48.818;9.422;2023-02-07T03:59:30;27.20;;;11.37;;
17510;SDS011;8873;48.818;9.422;2023-02-07T04:01:57;25.40;;;10.37;;
17510;SDS011;8873;48.818;9.422;2023-02-07T04:04:25;26.03;;;10.87;;
17510;SDS011;8873;48.818;9.422;2023-02-07T04:06:53;28.00;;;12.03;;
17510;SDS011;8873;48.818;9.422;2023-02-07T04:09:22;26.13;;;11.63;;
17510;SDS011;8873;48.818;9.422;2023-02-07T04:11:49;23.07;;;11.03;;
17510;SDS011;8873;48.818;9.422;2023-02-07T04:14:17;24.90;;;11.40;;
17510;SDS011;8873;48.818;9.422;2023-02-07T04:16:46;26.57;;;11.63;;
17510;SDS011;8873;48.818;9.422;2023-02-07T04:19:14;24.50;;;11.90;;
17510;SDS011;8873;48.818;9.422;2023-02-07T04:21:42;25.37;;;11.77;;
17510;SDS011;8873;48.818;9.422;2023-02-07T04:24:10;23.20;;;12.27;;
17510;SDS011;8873;48.818;9.422;2023-02-07T04:26:39;24.80;;;11.57;;
17510;SDS011;8873;48.818;9.422;2023-02-07T04:29:07;31.83;;;12.27;;
17510;SDS011;8873;48.818;9.422;2023-02-07T04:31:35;26.80;;;11.47;;
17510;SDS011;8873;48.818;9.422;2023-02-07T04:34:03;25.20;;;11.43;;
17510;SDS011;8873;48.818;9.422;2023-02-07T04:36:31;25.77;;;11.37;;
17510;SDS011;8873;48.818;9.422;2023-02-07T04:38:58;25.57;;;11.33;;
17510;SDS011;8873;48.818;9.422;2023-02-07T04:41:26;30.87;;;12.30;;
17510;SDS011;8873;48.818;9.422;2023-02-07T04:43:55;25.40;;;11.87;;
17510;SDS011;8873;48.818;9.422;2023-02-07T04:46:22;22.70;;;10.83;;
17510;SDS011;8873;48.818;9.422;2023-02-07T04:48:50;21.60;;;11.57;;
17510;SDS011;8873;48.818;9.422;2023-02-07T04:51:17;26.20;;;10.53;;
17510;SDS011;8873;48.818;9.422;2023-02-07T04:53:45;24.50;;;11.30;;
17510;SDS011;8873;48.818;9.422;2023-02-07T04:56:12;25.37;;;11.00;;
17510;SDS011;8873;48.818;9.422;2023-02-07T04:58:40;20.50;;;10.53;;
17510;SDS011;8873;48.818;9.422;2023-02-07T05:01:10;26.50;;;11.13;;
17510;SDS011;8873;48.818;9.422;2023-02-07T05:03:37;23.97;;;11.47;;
17510;SDS011;8873;48.818;9.422;2023-02-07T05:06:05;24.60;;;11.47;;
17510;SDS011;8873;48.818;9.422;2023-02-07T05:08:34;29.03;;;12.47;;
17510;SDS011;8873;48.818;9.422;2023-02-07T05:11:02;23.77;;;12.13;;
17510;SDS011;8873;48.818;9.422;2023-02-07T05:13:30;27.73;;;12.93;;
17510;SDS011;8873;48.818;9.422;2023-02-07T05:15:57;30.80;;;13.53;;
17510;SDS011;8873;48.818;9.422;2023-02-07T05:18:29;33.23;;;13.00;;
17510;SDS011;8873;48.818;9.422;2023-02-07T05:20:57;34.67;;;15.17;;
17510;SDS011;8873;48.818;9.422;2023-02-07T05:23:25;36.53;;;14.63;;
17510;SDS011;8873;48.818;9.422;2023-02-07T05:25:55;27.57;;;13.50;;
17510;SDS011;8873;48.818;9.422;2023-02-07T05:28:23;29.87;;;13.10;;
17510;SDS011;8873;48.818;9.422;2023-02-07T05:30:52;34.10;;;13.00;;
17510;SDS011;8873;48.818;9.422;2023-02-07T05:33:20;27.90;;;13.97;;
17510;SDS011;8873;48.818;9.422;2023-02-07T05:35:48;23.57;;;11.67;;
17510;SDS011;8873;48.818;9.422;2023-02-07T05:38:16;24.57;;;11.90;;
17510;SDS011;8873;48.818;9.422;2023-02-07T05:40:44;28.23;;;12.43;;
17510;SDS011;8873;48.818;9.422;2023-02-07T05:43:12;27.20;;;12.33;;
17510;SDS011;8873;48.818;9.422;2023-02-07T05:45:40;25.77;;;12.67;;
17510;SDS011;8873;48.818;9.422;2023-02-07T05:48:07;27.27;;;12.27;;
17510;SDS011;8873;48.818;9.422;2023-02-07T05:50:35;27.30;;;12.87;;
17510;SDS011;8873;48.818;9.422;2023-02-07T05:53:05;30.33;;;11.53;;
17510;SDS011;8873;48.818;9.422;2023-02-07T05:55:33;27.77;;;11.53;;
17510;SDS011;8873;48.818;9.422;2023-02-07T05:58:01;27.87;;;11.90;;
17510;SDS011;8873;48.818;9.422;2023-02-07T06:00:29;27.87;;;11.67;;
17510;SDS011;8873;48.818;9.422;2023-02-07T06:02:56;28.63;;;13.73;;
17510;SDS011;8873;48.818;9.422;2023-02-07T06:05:24;28.10;;;13.47;;
17510;SDS011;8873;48.818;9.422;2023-02-07T06:07:58;30.67;;;12.70;;
17510;SDS011;8873;48.818;9.422;2023-02-07T06:10:27;30.40;;;13.60;;
17510;SDS011;8873;48.818;9.422;2023-02-07T06:12:55;27.53;;;12.20;;
17510;SDS011;8873;48.818;9.422;2023-02-07T06:15:22;31.27;;;13.53;;
17510;SDS011;8873;48.818;9.422;2023-02-07T06:17:50;31.27;;;13.30;;
17510;SDS011;8873;48.818;9.422;2023-02-07T06:20:17;29.67;;;12.93;;
17510;SDS011;8873;48.818;9.422;2023-02-07T06:22:45;28.93;;;13.23;;
17510;SDS011;8873;48.818;9.422;2023-02-07T06:25:13;29.60;;;13.00;;
17510;SDS011;8873;48.818;9.422;2023-02-07T06:27:42;26.77;;;13.30;;
17510;SDS011;8873;48.818;9.422;2023-02-07T06:30:10;27.67;;;12.27;;
17510;SDS011;8873;48.818;9.422;2023-02-07T06:32:38;31.87;;;13.80;;
17510;SDS011;8873;48.818;9.422;2023-02-07T06:35:06;27.33;;;12.77;;
17510;SDS011;8873;48.818;9.422;2023-02-07T06:37:34;24.00;;;11.80;;
17510;SDS011;8873;48.818;9.422;2023-02-07T06:40:02;28.00;;;11.97;;
17510;SDS011;8873;48.818;9.422;2023-02-07T06:42:30;33.47;;;13.03;;
17510;SDS011;8873;48.818;9.422;2023-02-07T06:45:00;28.53;;;12.60;;
17510;SDS011;8873;48.818;9.422;2023-02-07T06:47:27;26.57;;;12.00;;
17510;SDS011;8873;48.818;9.422;2023-02-07T06:49:55;31.33;;;13.00;;
17510;SDS011;8873;48.818;9.422;2023-02-07T06:52:23;38.33;;;14.73;;
17510;SDS011;8873;48.818;9.422;2023-02-07T06:54:50;39.60;;;15.17;;
17510;SDS011;8873;48.818;9.422;2023-02-07T06:57:18;35.90;;;15.40;;
17510;SDS011;8873;48.818;9.422;2023-02-07T06:59:45;34.03;;;15.07;;
17510;SDS011;8873;48.818;9.422;2023-02-07T07:02:14;33.40;;;14.87;;
17510;SDS011;8873;48.818;9.422;2023-02-07T07:04:42;37.63;;;15.97;;
17510;SDS011;8873;48.818;9.422;2023-02-07T07:07:10;42.20;;;16.57;;
17510;SDS011;8873;48.818;9.422;2023-02-07T07:09:38;32.63;;;12.60;;
17510;SDS011;8873;48.818;9.422;2023-02-07T07:12:05;36.83;;;15.37;;
17510;SDS011;8873;48.818;9.422;2023-02-07T07:14:33;33.20;;;14.47;;
17510;SDS011;8873;48.818;9.422;2023-02-07T07:17:01;29.73;;;14.00;;
17510;SDS011;8873;48.818;9.422;2023-02-07T07:19:30;29.87;;;14.00;;
17510;SDS011;8873;48.818;9.422;2023-02-07T07:21:58;34.87;;;14.67;;
17510;SDS011;8873;48.818;9.422;2023-02-07T07:24:26;32.67;;;14.20;;
17510;SDS011;8873;48.818;9.422;2023-02-07T07:26:53;32.30;;;14.20;;
17510;SDS011;8873;48.818;9.422;2023-02-07T07:29:21;32.90;;;14.67;;
17510;SDS011;8873;48.818;9.422;2023-02-07T07:31:49;36.63;;;15.90;;
17510;SDS011;8873;48.818;9.422;2023-02-07T07:34:17;35.13;;;16.80;;
17510;SDS011;8873;48.818;9.422;2023-02-07T07:36:46;33.47;;;15.13;;
17510;SDS011;8873;48.818;9.422;2023-02-07T07:39:14;34.07;;;14.60;;
17510;SDS011;8873;48.818;9.422;2023-02-07T07:41:42;34.73;;;14.63;;
17510;SDS011;8873;48.818;9.422;2023-02-07T07:44:09;31.43;;;14.43;;
17510;SDS011;8873;48.818;9.422;2023-02-07T07:46:37;42.20;;;14.47;;
17510;SDS011;8873;48.818;9.422;2023-02-07T07:49:05;41.33;;;15.00;;
17510;SDS011;8873;48.818;9.422;2023-02-07T07:51:32;31.67;;;14.03;;
17510;SDS011;8873;48.818;9.422;2023-02-07T07:54:01;32.90;;;14.40;;
17510;SDS011;8873;48.818;9.422;2023-02-07T07:56:31;33.23;;;12.67;;
17510;SDS011;8873;48.818;9.422;2023-02-07T07:59:00;27.67;;;12.37;;
17510;SDS011;8873;48.818;9.422;2023-02-07T08:01:34;29.43;;;12.33;;
17510;SDS011;8873;48.818;9.422;2023-02-07T08:04:01;29.33;;;12.50;;
17510;SDS011;8873;48.818;9.422;2023-02-07T08:06:29;25.43;;;11.60;;
17510;SDS011;8873;48.818;9.422;2023-02-07T08:08:57;30.70;;;13.13;;
17510;SDS011;8873;48.818;9.422;2023-02-07T08:11:26;28.23;;;13.07;;
17510;SDS011;8873;48.818;9.422;2023-02-07T08:13:53;23.70;;;11.17;;
17510;SDS011;8873;48.818;9.422;2023-02-07T08:16:27;27.23;;;11.33;;
17510;SDS011;8873;48.818;9.422;2023-02-07T08:18:54;28.50;;;11.33;;
17510;SDS011;8873;48.818;9.422;2023-02-07T08:21:24;22.47;;;11.73;;
17510;SDS011;8873;48.818;9.422;2023-02-07T08:23:52;25.17;;;10.67;;
17510;SDS011;8873;48.818;9.422;2023-02-07T08:26:20;24.23;;;9.77;;
17510;SDS011;8873;48.818;9.422;2023-02-07T08:28:49;25.83;;;10.60;;
17510;SDS011;8873;48.818;9.422;2023-02-07T08:31:18;25.93;;;11.70;;
17510;SDS011;8873;48.818;9.422;2023-02-07T08:33:46;23.20;;;10.50;;
17510;SDS011;8873;48.818;9.422;2023-02-07T08:36:14;24.97;;;10.57;;
17510;SDS011;8873;48.818;9.422;2023-02-07T08:38:41;21.67;;;9.93;;
17510;SDS011;8873;48.818;9.422;2023-02-07T08:41:09;27.53;;;9.20;;
17510;SDS011;8873;48.818;9.422;2023-02-07T08:43:36;18.67;;;9.17;;
17510;SDS011;8873;48.818;9.422;2023-02-07T08:46:05;28.67;;;10.43;;
17510;SDS011;8873;48.818;9.422;2023-02-07T08:48:33;21.53;;;10.20;;
17510;SDS011;8873;48.818;9.422;2023-02-07T08:51:03;25.23;;;9.63;;
17510;SDS011;8873;48.818;9.422;2023-02-07T08:53:31;19.83;;;10.20;;
17510;SDS011;8873;48.818;9.422;2023-02-07T08:55:58;22.13;;;9.87;;
17510;SDS011;8873;48.818;9.422;2023-02-07T08:58:26;20.30;;;10.23;;
17510;SDS011;8873;48.818;9.422;2023-02-07T09:00:54;25.40;;;10.77;;
17510;SDS011;8873;48.818;9.422;2023-02-07T09:03:23;23.33;;;9.90;;
17510;SDS011;8873;48.818;9.422;2023-02-07T09:05:54;18.20;;;8.80;;
17510;SDS011;8873;48.818;9.422;2023-02-07T09:08:23;19.47;;;8.67;;
17510;SDS011;8873;48.818;9.422;2023-02-07T09:10:51;20.67;;;9.20;;
17510;SDS011;8873;48.818;9.422;2023-02-07T09:13:19;18.00;;;9.40;;
17510;SDS011;8873;48.818;9.422;2023-02-07T09:15:51;19.87;;;9.60;;
17510;SDS011;8873;48.818;9.422;2023-02-07T09:18:19;23.10;;;9.50;;
17510;SDS011;8873;48.818;9.422;2023-02-07T09:20:48;20.70;;;9.57;;
17510;SDS011;8873;48.818;9.422;2023-02-07T09:23:15;21.90;;;9.10;;
17510;SDS011;8873;48.818;9.422;2023-02-07T09:25:49;16.50;;;8.80;;
17510;SDS011;8873;48.818;9.422;2023-02-07T09:28:18;18.50;;;10.03;;
17510;SDS011;8873;48.818;9.422;2023-02-07T09:30:47;17.37;;;9.17;;
17510;SDS011;8873;48.818;9.422;2023-02-07T09:33:16;21.50;;;10.37;;
17510;SDS011;8873;48.818;9.422;2023-02-07T09:35:44;19.40;;;9.60;;
17510;SDS011;8873;48.818;9.422;2023-02-07T09:38:14;18.00;;;8.80;;
17510;SDS011;8873;48.818;9.422;2023-02-07T09:40:42;20.50;;;9.67;;
17510;SDS011;8873;48.818;9.422;2023-02-07T09:43:13;17.47;;;8.90;;
17510;SDS011;8873;48.818;9.422;2023-02-07T09:45:43;18.77;;;9.67;;
17510;SDS011;8873;48.818;9.422;2023-02-07T09:48:13;19.60;;;9.23;;
17510;SDS011;8873;48.818;9.422;2023-02-07T09:50:44;17.27;;;8.97;;
17510;SDS011;8873;48.818;9.422;2023-02-07T09:53:16;18.87;;;9.57;;
17510;SDS011;8873;48.818;9.422;2023-02-07T09:55:46;16.47;;;9.03;;
17510;SDS011;8873;48.818;9.422;2023-02-07T09:58:16;18.60;;;9.00;;
17510;SDS011;8873;48.818;9.422;2023-02-07T10:00:46;15.93;;;9.07;;
17510;SDS011;8873;48.818;9.422;2023-02-07T10:03:14;23.57;;;9.70;;
17510;SDS011;8873;48.818;9.422;2023-02-07T10:05:43;17.73;;;8.87;;
17510;SDS011;8873;48.818;9.422;2023-02-07T10:08:11;26.33;;;10.37;;
17510;SDS011;8873;48.818;9.422;2023-02-07T10:10:42;19.90;;;9.47;;
17510;SDS011;8873;48.818;9.422;2023-02-07T10:13:24;20.47;;;9.17;;
17510;SDS011;8873;48.818;9.422;2023-02-07T10:16:05;14.83;;;8.47;;
17510;SDS011;8873;48.818;9.422;2023-02-07T10:18:37;16.03;;;8.43;;
17510;SDS011;8873;48.818;9.422;2023-02-07T10:21:09;17.60;;;8.50;;
17510;SDS011;8873;48.818;9.422;2023-02-07T10:23:42;16.93;;;8.80;;
17510;SDS011;8873;48.818;9.422;2023-02-07T10:26:21;20.13;;;9.13;;
17510;SDS011;8873;48.818;9.422;2023-02-07T10:31:37;20.17;;;9.50;;
17510;SDS011;8873;48.818;9.422;2023-02-07T10:34:09;22.20;;;9.70;;
17510;SDS011;8873;48.818;9.422;2023-02-07T10:36:40;19.05;;;10.27;;
17510;SDS011;8873;48.818;9.422;2023-02-07T10:39:11;14.80;;;8.00;;
17510;SDS011;8873;48.818;9.422;2023-02-07T10:41:42;19.38;;;9.77;;
17510;SDS011;8873;48.818;9.422;2023-02-07T10:44:11;17.90;;;8.90;;
17510;SDS011;8873;48.818;9.422;2023-02-07T10:46:39;14.43;;;8.57;;
17510;SDS011;8873;48.818;9.422;2023-02-07T10:49:09;17.55;;;7.95;;
17510;SDS011;8873;48.818;9.422;2023-02-07T10:51:50;15.95;;;7.80;;
17510;SDS011;8873;48.818;9.422;2023-02-07T10:54:18;15.43;;;8.60;;
17510;SDS011;8873;48.818;9.422;2023-02-07T10:56:51;15.23;;;8.00;;
17510;SDS011;8873;48.818;9.422;2023-02-07T10:59:30;14.70;;;7.57;;
17510;SDS011;8873;48.818;9.422;2023-02-07T11:01:59;13.75;;;7.88;;
17510;SDS011;8873;48.818;9.422;2023-02-07T11:04:32;12.77;;;7.85;;
17510;SDS011;8873;48.818;9.422;2023-02-07T11:07:05;16.25;;;8.85;;
17510;SDS011;8873;48.818;9.422;2023-02-07T11:09:33;14.80;;;8.18;;
17510;SDS011;8873;48.818;9.422;2023-02-07T11:12:13;14.57;;;8.38;;
17510;SDS011;8873;48.818;9.422;2023-02-07T11:14:44;22.20;;;8.32;;
17510;SDS011;8873;48.818;9.422;2023-02-07T11:17:26;15.73;;;8.38;;
17510;SDS011;8873;48.818;9.422;2023-02-07T11:19:55;12.32;;;8.48;;
17510;SDS011;8873;48.818;9.422;2023-02-07T11:22:23;12.35;;;7.55;;
17510;SDS011;8873;48.818;9.422;2023-02-07T11:24:51;14.82;;;7.80;;
17510;SDS011;8873;48.818;9.422;2023-02-07T11:27:22;15.35;;;8.45;;
17510;SDS011;8873;48.818;9.422;2023-02-07T11:29:51;15.98;;;8.43;;
17510;SDS011;8873;48.818;9.422;2023-02-07T11:32:24;12.80;;;7.75;;
17510;SDS011;8873;48.818;9.422;2023-02-07T11:34:53;11.20;;;7.40;;
17510;SDS011;8873;48.818;9.422;2023-02-07T11:37:23;13.07;;;8.25;;
17510;SDS011;8873;48.818;9.422;2023-02-07T11:39:53;12.98;;;7.80;;
17510;SDS011;8873;48.818;9.422;2023-02-07T11:42:24;12.43;;;7.65;;
17510;SDS011;8873;48.818;9.422;2023-02-07T11:44:52;14.52;;;7.97;;
17510;SDS011;8873;48.818;9.422;2023-02-07T11:47:24;13.20;;;7.45;;
17510;SDS011;8873;48.818;9.422;2023-02-07T11:50:07;13.00;;;8.02;;
17510;SDS011;8873;48.818;9.422;2023-02-07T11:52:48;12.68;;;7.55;;
17510;SDS011;8873;48.818;9.422;2023-02-07T11:55:19;11.50;;;7.05;;
17510;SDS011;8873;48.818;9.422;2023-02-07T11:57:49;12.98;;;7.80;;
17510;SDS011;8873;48.818;9.422;2023-02-07T12:00:19;11.55;;;6.85;;
17510;SDS011;8873;48.818;9.422;2023-02-07T12:02:50;13.10;;;7.78;;
17510;SDS011;8873;48.818;9.422;2023-02-07T12:05:19;10.10;;;7.07;;
17510;SDS011;8873;48.818;9.422;2023-02-07T12:07:48;10.38;;;7.70;;
17510;SDS011;8873;48.818;9.422;2023-02-07T12:10:19;11.60;;;7.47;;
17510;SDS011;8873;48.818;9.422;2023-02-07T12:12:56;13.95;;;7.68;;
17510;SDS011;8873;48.818;9.422;2023-02-07T12:15:27;11.75;;;7.40;;
17510;SDS011;8873;48.818;9.422;2023-02-07T12:17:57;12.13;;;7.35;;
17510;SDS011;8873;48.818;9.422;2023-02-07T12:20:26;13.52;;;7.28;;
17510;SDS011;8873;48.818;9.422;2023-02-07T12:23:02;16.35;;;7.68;;
17510;SDS011;8873;48.818;9.422;2023-02-07T12:25:53;12.18;;;6.15;;
17510;SDS011;8873;48.818;9.422;2023-02-07T12:28:38;11.70;;;6.35;;
17510;SDS011;8873;48.818;9.422;2023-02-07T12:31:10;10.18;;;6.07;;
17510;SDS011;8873;48.818;9.422;2023-02-07T12:33:43;9.60;;;6.45;;
17510;SDS011;8873;48.818;9.422;2023-02-07T12:36:19;9.20;;;6.15;;
17510;SDS011;8873;48.818;9.422;2023-02-07T12:38:58;12.40;;;6.53;;
17510;SDS011;8873;48.818;9.422;2023-02-07T12:41:28;9.38;;;6.43;;
17510;SDS011;8873;48.818;9.422;2023-02-07T12:44:00;10.65;;;6.68;;
17510;SDS011;8873;48.818;9.422;2023-02-07T12:46:34;8.85;;;6.35;;
17510;SDS011;8873;48.818;9.422;2023-02-07T12:49:12;7.55;;;5.82;;
17510;SDS011;8873;48.818;9.422;2023-02-07T12:51:55;8.80;;;5.88;;
17510;SDS011;8873;48.818;9.422;2023-02-07T12:54:29;11.35;;;6.80;;
17510;SDS011;8873;48.818;9.422;2023-02-07T12:57:03;9.10;;;6.45;;
17510;SDS011;8873;48.818;9.422;2023-02-07T12:59:38;7.68;;;5.93;;
17510;SDS011;8873;48.818;9.422;2023-02-07T13:02:16;8.68;;;5.97;;
17510;SDS011;8873;48.818;9.422;2023-02-07T13:04:50;8.63;;;6.15;;
17510;SDS011;8873;48.818;9.422;2023-02-07T13:07:25;9.73;;;6.07;;
17510;SDS011;8873;48.818;9.422;2023-02-07T13:10:01;11.55;;;7.05;;
17510;SDS011;8873;48.818;9.422;2023-02-07T13:12:32;6.80;;;5.50;;
17510;SDS011;8873;48.818;9.422;2023-02-07T13:15:08;9.23;;;5.88;;
17510;SDS011;8873;48.818;9.422;2023-02-07T13:17:40;6.85;;;5.75;;
17510;SDS011;8873;48.818;9.422;2023-02-07T13:20:15;7.05;;;5.82;;
17510;SDS011;8873;48.818;9.422;2023-02-07T13:22:52;11.13;;;6.80;;
17510;SDS011;8873;48.818;9.422;2023-02-07T13:25:24;8.57;;;5.32;;
17510;SDS011;8873;48.818;9.422;2023-02-07T13:27:54;7.63;;;5.68;;
17510;SDS011;8873;48.818;9.422;2023-02-07T13:30:27;16.30;;;6.00;;
17510;SDS011;8873;48.818;9.422;2023-02-07T13:32:57;8.90;;;5.80;;
17510;SDS011;8873;48.818;9.422;2023-02-07T13:35:39;9.13;;;5.47;;
17510;SDS011;8873;48.818;9.422;2023-02-07T13:38:14;8.13;;;5.45;;
17510;SDS011;8873;48.818;9.422;2023-02-07T13:40:49;8.32;;;5.90;;
17510;SDS011;8873;48.818;9.422;2023-02-07T13:43:21;8.55;;;5.25;;
17510;SDS011;8873;48.818;9.422;2023-02-07T13:45:57;7.95;;;5.47;;
17510;SDS011;8873;48.818;9.422;2023-02-07T13:48:31;8.45;;;5.55;;
17510;SDS011;8873;48.818;9.422;2023-02-07T13:51:03;5.90;;;5.00;;
17510;SDS011;8873;48.818;9.422;2023-02-07T13:53:42;7.45;;;5.60;;
17510;SDS011;8873;48.818;9.422;2023-02-07T13:56:15;8.23;;;4.88;;
17510;SDS011;8873;48.818;9.422;2023-02-07T13:59:01;8.82;;;5.50;;
17510;SDS011;8873;48.818;9.422;2023-02-07T14:01:49;8.05;;;5.35;;
17510;SDS011;8873;48.818;9.422;2023-02-07T14:04:25;7.13;;;5.25;;
17510;SDS011;8873;48.818;9.422;2023-02-07T14:07:13;8.85;;;5.05;;
17510;SDS011;8873;48.818;9.422;2023-02-07T14:09:50;9.60;;;5.30;;
17510;SDS011;8873;48.818;9.422;2023-02-07T14:12:22;7.35;;;4.93;;
17510;SDS011;8873;48.818;9.422;2023-02-07T14:14:50;5.93;;;4.35;;
17510;SDS011;8873;48.818;9.422;2023-02-07T14:23:03;20.83;;;8.15;;
17510;SDS011;8873;48.818;9.422;2023-02-07T14:25:37;8.93;;;5.70;;
17510;SDS011;8873;48.818;9.422;2023-02-07T14:28:19;7.47;;;5.30;;
17510;SDS011;8873;48.818;9.422;2023-02-07T14:31:00;10.10;;;6.00;;
17510;SDS011;8873;48.818;9.422;2023-02-07T14:33:34;7.95;;;5.15;;
17510;SDS011;8873;48.818;9.422;2023-02-07T14:36:20;7.38;;;5.13;;
17510;SDS011;8873;48.818;9.422;2023-02-07T14:41:38;7.47;;;4.43;;
17510;SDS011;8873;48.818;9.422;2023-02-07T14:44:19;9.00;;;5.15;;
17510;SDS011;8873;48.818;9.422;2023-02-07T14:46:48;8.77;;;4.40;;
17510;SDS011;8873;48.818;9.422;2023-02-07T14:49:19;8.25;;;5.55;;
17510;SDS011;8873;48.818;9.422;2023-02-07T14:51:49;9.52;;;4.82;;
17510;SDS011;8873;48.818;9.422;2023-02-07T14:54:21;12.57;;;5.43;;
17510;SDS011;8873;48.818;9.422;2023-02-07T14:56:58;11.73;;;6.45;;
17510;SDS011;8873;48.818;9.422;2023-02-07T14:59:42;7.82;;;5.00;;
17510;SDS011;8873;48.818;9.422;2023-02-07T15:02:24;6.43;;;4.68;;
17510;SDS011;8873;48.818;9.422;2023-02-07T15:04:57;6.50;;;4.68;;
17510;SDS011;8873;48.818;9.422;2023-02-07T15:07:28;8.25;;;5.03;;
17510;SDS011;8873;48.818;9.422;2023-02-07T15:09:59;9.77;;;5.15;;
17510;SDS011;8873;48.818;9.422;2023-02-07T15:12:29;11.27;;;5.53;;
17510;SDS011;8873;48.818;9.422;2023-02-07T15:14:58;8.10;;;5.13;;
17510;SDS011;8873;48.818;9.422;2023-02-07T15:17:33;6.55;;;4.47;;
17510;SDS011;8873;48.818;9.422;2023-02-07T15:20:12;7.85;;;4.45;;